createdAt,value
2018-02-26T00:00:50.254Z,102632
2018-02-26T00:03:18.200Z,102625
2018-02-26T00:05:46.096Z,102630
2018-02-26T00:08:14.004Z,102647
2018-02-26T00:10:41.916Z,102627
2018-02-26T00:13:09.809Z,102624
2018-02-26T00:15:37.770Z,102635
2018-02-26T00:18:05.681Z,102625
2018-02-26T00:20:33.852Z,102614
2018-02-26T00:23:01.790Z,102628
2018-02-26T00:25:29.684Z,102626
2018-02-26T00:27:57.583Z,102621
2018-02-26T00:30:25.513Z,102625
2018-02-26T00:32:53.420Z,102631
2018-02-26T00:35:21.320Z,102634
2018-02-26T00:37:49.260Z,102629
2018-02-26T00:40:17.188Z,102629
2018-02-26T00:42:45.091Z,102625
2018-02-26T00:45:12.996Z,102640
2018-02-26T00:47:40.892Z,102632
2018-02-26T00:50:08.785Z,102638
2018-02-26T00:52:36.680Z,102633
2018-02-26T00:55:04.569Z,102632
2018-02-26T00:57:32.655Z,102620
2018-02-26T01:00:00.544Z,102620
2018-02-26T01:02:28.444Z,102620
2018-02-26T01:04:56.337Z,102621
2018-02-26T01:07:24.221Z,102630
2018-02-26T01:09:52.135Z,102622
2018-02-26T01:12:20.026Z,102627
2018-02-26T01:14:47.945Z,102624
2018-02-26T01:17:15.898Z,102628
2018-02-26T01:19:43.792Z,102639
2018-02-26T01:22:11.676Z,102625
2018-02-26T01:24:39.589Z,102635
2018-02-26T01:27:07.488Z,102650
2018-02-26T01:29:35.388Z,102629
2018-02-26T01:32:03.267Z,102633
2018-02-26T01:34:31.177Z,102630
2018-02-26T01:36:59.068Z,102631
2018-02-26T01:39:26.981Z,102639
2018-02-26T01:41:54.884Z,102627
2018-02-26T01:44:22.776Z,102629
2018-02-26T01:46:50.663Z,102642
2018-02-26T01:49:18.557Z,102628
2018-02-26T01:51:46.465Z,102635
2018-02-26T01:54:15.136Z,102629
2018-02-26T01:56:43.016Z,102635
2018-02-26T01:59:10.923Z,102630
2018-02-26T02:01:38.816Z,102630
2018-02-26T02:04:06.708Z,102627
2018-02-26T02:06:34.652Z,102620
2018-02-26T02:09:02.569Z,102638
2018-02-26T02:11:30.477Z,102625
2018-02-26T02:13:58.363Z,102627
2018-02-26T02:16:26.257Z,102633
2018-02-26T02:18:54.156Z,102633
2018-02-26T02:21:22.048Z,102643
2018-02-26T02:23:49.940Z,102649
2018-02-26T02:26:18.091Z,102632
2018-02-26T02:28:45.992Z,102633
2018-02-26T02:31:13.877Z,102638
2018-02-26T02:33:41.769Z,102633
2018-02-26T02:36:09.659Z,102631
2018-02-26T02:38:37.587Z,102628
2018-02-26T02:41:05.478Z,102619
2018-02-26T02:43:33.366Z,102622
2018-02-26T02:46:01.265Z,102629
2018-02-26T02:48:29.165Z,102632
2018-02-26T02:50:57.075Z,102622
2018-02-26T02:53:24.965Z,102627
2018-02-26T02:55:52.861Z,102632
2018-02-26T02:58:20.753Z,102635
2018-02-26T03:00:48.973Z,102639
2018-02-26T03:03:16.869Z,102631
2018-02-26T03:05:44.777Z,102630
2018-02-26T03:08:12.704Z,102632
2018-02-26T03:10:40.592Z,102645
2018-02-26T03:13:08.476Z,102629
2018-02-26T03:15:36.416Z,102647
2018-02-26T03:18:04.279Z,102634
2018-02-26T03:20:32.181Z,102635
2018-02-26T03:23:00.390Z,102638
2018-02-26T03:25:28.286Z,102644
2018-02-26T03:27:56.176Z,102634
2018-02-26T03:30:24.074Z,102634
2018-02-26T03:32:51.968Z,102633
2018-02-26T03:35:19.863Z,102630
2018-02-26T03:37:47.753Z,102643
2018-02-26T03:40:15.640Z,102647
2018-02-26T03:42:43.524Z,102643
2018-02-26T03:45:11.419Z,102639
2018-02-26T03:47:39.320Z,102630
2018-02-26T03:50:07.221Z,102635
2018-02-26T03:52:35.121Z,102640
2018-02-26T03:55:03.207Z,102627
2018-02-26T03:57:31.092Z,102619
2018-02-26T03:59:58.997Z,102619
2018-02-26T04:02:26.908Z,102630
2018-02-26T04:04:54.817Z,102623
2018-02-26T04:07:22.712Z,102634
2018-02-26T04:09:50.613Z,102616
2018-02-26T04:12:18.498Z,102640
2018-02-26T04:14:46.387Z,102642
2018-02-26T04:17:14.276Z,102639
2018-02-26T04:19:42.168Z,102640
2018-02-26T04:22:10.056Z,102635
2018-02-26T04:24:37.944Z,102638
2018-02-26T04:27:05.896Z,102642
2018-02-26T04:29:33.785Z,102641
2018-02-26T04:32:01.681Z,102627
2018-02-26T04:34:29.568Z,102619
2018-02-26T04:36:57.466Z,102627
2018-02-26T04:39:25.360Z,102633
2018-02-26T04:41:53.253Z,102631
2018-02-26T04:44:21.146Z,102625
2018-02-26T04:46:49.061Z,102622
2018-02-26T04:49:16.956Z,102625
2018-02-26T04:51:44.849Z,102627
2018-02-26T04:54:12.750Z,102623
2018-02-26T04:56:40.645Z,102621
2018-02-26T04:59:08.540Z,102622
2018-02-26T05:01:36.439Z,102629
2018-02-26T05:04:04.336Z,102628
2018-02-26T05:06:32.232Z,102623
2018-02-26T05:09:00.188Z,102619
2018-02-26T05:11:28.099Z,102626
2018-02-26T05:13:55.996Z,102614
2018-02-26T05:16:23.892Z,102610
2018-02-26T05:18:51.785Z,102619
2018-02-26T05:21:19.674Z,102611
2018-02-26T05:23:47.573Z,102607
2018-02-26T05:26:15.468Z,102609
2018-02-26T05:28:43.365Z,102595
2018-02-26T05:31:11.257Z,102604
2018-02-26T05:33:39.164Z,102607
2018-02-26T05:36:07.052Z,102610
2018-02-26T05:38:34.953Z,102600
2018-02-26T05:41:02.850Z,102599
2018-02-26T05:43:30.736Z,102597
2018-02-26T05:45:58.625Z,102598
2018-02-26T05:48:26.528Z,102597
2018-02-26T05:50:54.427Z,102594
2018-02-26T05:53:22.329Z,102606
2018-02-26T05:55:50.228Z,102608
2018-02-26T05:58:18.126Z,102608
2018-02-26T06:00:52.210Z,102602
2018-02-26T06:03:20.124Z,102605
2018-02-26T06:05:48.668Z,102599
2018-02-26T06:08:16.565Z,102624
2018-02-26T06:10:44.491Z,102617
2018-02-26T06:13:12.385Z,102619
2018-02-26T06:15:40.280Z,102621
2018-02-26T06:18:08.198Z,102627
2018-02-26T06:20:36.329Z,102626
2018-02-26T06:23:04.237Z,102618
2018-02-26T06:25:32.140Z,102614
2018-02-26T06:28:00.154Z,102613
2018-02-26T06:30:28.048Z,102597
2018-02-26T06:32:55.948Z,102612
2018-02-26T06:35:23.836Z,102607
2018-02-26T06:37:52.035Z,102603
2018-02-26T06:40:19.938Z,102605
2018-02-26T06:42:47.835Z,102610
2018-02-26T06:45:15.724Z,102609
2018-02-26T06:47:43.616Z,102611
2018-02-26T06:50:11.500Z,102593
2018-02-26T06:52:39.392Z,102604
2018-02-26T06:55:07.289Z,102607
2018-02-26T06:57:35.496Z,102598
2018-02-26T07:00:03.395Z,102594
2018-02-26T07:02:31.301Z,102585
2018-02-26T07:04:59.204Z,102595
2018-02-26T07:07:27.101Z,102597
2018-02-26T07:09:55.000Z,102601
2018-02-26T07:12:22.896Z,102595
2018-02-26T07:14:50.789Z,102597
2018-02-26T07:17:18.688Z,102605
2018-02-26T07:19:46.578Z,102599
2018-02-26T07:22:14.941Z,102617
2018-02-26T07:24:42.836Z,102609
2018-02-26T07:27:10.732Z,102605
2018-02-26T07:29:38.624Z,102623
2018-02-26T07:32:06.520Z,102610
2018-02-26T07:34:34.408Z,102628
2018-02-26T07:37:02.307Z,102620
2018-02-26T07:39:30.212Z,102623
2018-02-26T07:41:58.114Z,102616
2018-02-26T07:44:26.059Z,102650
2018-02-26T07:46:53.904Z,102634
2018-02-26T07:49:21.848Z,102632
2018-02-26T07:51:49.758Z,102627
2018-02-26T07:54:17.714Z,102638
2018-02-26T07:56:45.604Z,102639
2018-02-26T07:59:13.488Z,102649
2018-02-26T08:01:41.400Z,102622
2018-02-26T08:04:09.293Z,102638
2018-02-26T08:06:37.208Z,102632
2018-02-26T08:09:05.106Z,102646
2018-02-26T08:11:33.112Z,102627
2018-02-26T08:14:01.005Z,102632
2018-02-26T08:16:28.904Z,102634
2018-02-26T08:18:56.809Z,102635
2018-02-26T08:21:24.715Z,102647
2018-02-26T08:23:52.650Z,102640
2018-02-26T08:26:20.552Z,102659
2018-02-26T08:28:48.781Z,102646
2018-02-26T08:31:16.692Z,102645
2018-02-26T08:33:44.584Z,102647
2018-02-26T08:36:12.482Z,102652
2018-02-26T08:38:40.383Z,102642
2018-02-26T08:41:08.285Z,102642
2018-02-26T08:43:36.177Z,102641
2018-02-26T08:46:04.068Z,102632
2018-02-26T08:48:31.961Z,102631
2018-02-26T08:50:59.853Z,102631
2018-02-26T08:53:27.743Z,102623
2018-02-26T08:55:55.934Z,102619
2018-02-26T08:58:23.829Z,102631
2018-02-26T09:00:51.727Z,102615
2018-02-26T09:03:19.620Z,102616
2018-02-26T09:05:47.527Z,102626
2018-02-26T09:08:15.437Z,102628
2018-02-26T09:10:43.345Z,102626
2018-02-26T09:13:11.236Z,102617
2018-02-26T09:15:39.133Z,102618
2018-02-26T09:18:07.033Z,102624
2018-02-26T09:20:35.028Z,102617
2018-02-26T09:23:02.912Z,102612
2018-02-26T09:25:30.805Z,102607
2018-02-26T09:27:59.240Z,102618
2018-02-26T09:30:27.123Z,102613
2018-02-26T09:32:55.036Z,102604
2018-02-26T09:35:22.936Z,102604
2018-02-26T09:37:50.828Z,102608
2018-02-26T09:40:18.783Z,102598
2018-02-26T09:42:46.681Z,102603
2018-02-26T09:45:14.577Z,102599
2018-02-26T09:47:42.488Z,102588
2018-02-26T09:53:15.014Z,102593
2018-02-26T09:55:42.925Z,102584
2018-02-26T09:58:10.819Z,102589
2018-02-26T10:00:38.760Z,102579
2018-02-26T10:03:06.653Z,102585
2018-02-26T10:05:34.540Z,102585
2018-02-26T10:08:02.460Z,102582
2018-02-26T10:10:30.362Z,102578
2018-02-26T10:12:58.256Z,102575
2018-02-26T10:15:26.160Z,102580
2018-02-26T10:17:54.043Z,102572
2018-02-26T10:20:21.937Z,102579
2018-02-26T10:22:49.835Z,102575
2018-02-26T10:25:17.729Z,102579
2018-02-26T10:27:45.829Z,102586
2018-02-26T10:30:13.717Z,102571
2018-02-26T10:32:41.600Z,102572
2018-02-26T10:35:09.489Z,102572
2018-02-26T10:37:37.380Z,102567
2018-02-26T10:40:05.277Z,102556
2018-02-26T10:42:33.159Z,102574
2018-02-26T10:45:01.055Z,102563
2018-02-26T10:47:28.954Z,102552
2018-02-26T10:49:56.869Z,102554
2018-02-26T10:52:25.208Z,102553
2018-02-26T10:54:53.109Z,102547
2018-02-26T10:57:21.006Z,102554
2018-02-26T10:59:48.904Z,102552
2018-02-26T11:02:16.838Z,102538
2018-02-26T11:04:44.724Z,102554
2018-02-26T11:07:12.617Z,102534
2018-02-26T11:09:40.504Z,102537
2018-02-26T11:12:08.401Z,102523
2018-02-26T11:14:36.298Z,102525
2018-02-26T11:17:04.180Z,102525
2018-02-26T11:19:32.072Z,102531
2018-02-26T11:21:59.991Z,102531
2018-02-26T11:24:27.877Z,102521
2018-02-26T11:26:55.772Z,102525
2018-02-26T11:29:23.660Z,102508
2018-02-26T11:31:51.556Z,102509
2018-02-26T11:34:19.447Z,102507
2018-02-26T11:36:47.340Z,102503
2018-02-26T11:39:15.238Z,102507
2018-02-26T11:41:43.132Z,102510
2018-02-26T11:44:11.019Z,102513
2018-02-26T11:46:38.920Z,102505
2018-02-26T11:49:06.805Z,102497
2018-02-26T11:51:34.694Z,102494
2018-02-26T11:54:02.583Z,102503
2018-02-26T11:56:30.469Z,102491
2018-02-26T11:58:58.356Z,102496
2018-02-26T12:01:26.259Z,102492
2018-02-26T12:03:54.145Z,102484
2018-02-26T12:06:22.032Z,102485
2018-02-26T12:08:49.916Z,102469
2018-02-26T12:11:17.801Z,102477
2018-02-26T12:13:45.694Z,102469
2018-02-26T12:16:13.824Z,102467
2018-02-26T12:18:41.965Z,102467
2018-02-26T12:21:09.856Z,102468
2018-02-26T12:23:37.740Z,102462
2018-02-26T12:26:05.633Z,102462
2018-02-26T12:28:33.529Z,102457
2018-02-26T12:31:01.417Z,102452
2018-02-26T12:33:29.317Z,102452
2018-02-26T12:35:57.248Z,102455
2018-02-26T12:38:25.148Z,102457
2018-02-26T12:40:53.048Z,102452
2018-02-26T12:43:20.952Z,102439
2018-02-26T12:45:48.844Z,102438
2018-02-26T12:48:16.735Z,102436
2018-02-26T12:50:44.621Z,102427
2018-02-26T12:53:12.515Z,102438
2018-02-26T12:55:40.417Z,102435
2018-02-26T12:58:08.313Z,102422
2018-02-26T13:00:36.201Z,102433
2018-02-26T13:03:04.101Z,102421
2018-02-26T13:05:31.988Z,102418
2018-02-26T13:07:59.885Z,102418
2018-02-26T13:10:27.831Z,102435
2018-02-26T13:12:55.686Z,102409
2018-02-26T13:15:23.584Z,102405
2018-02-26T13:17:51.474Z,102401
2018-02-26T13:20:19.567Z,102394
2018-02-26T13:22:47.474Z,102414
2018-02-26T13:25:15.377Z,102400
2018-02-26T13:27:43.309Z,102390
2018-02-26T13:30:11.216Z,102389
2018-02-26T13:32:39.137Z,102388
2018-02-26T13:35:07.045Z,102375
2018-02-26T13:37:35.009Z,102370
2018-02-26T13:40:02.908Z,102368
2018-02-26T13:42:30.825Z,102351
2018-02-26T13:44:58.720Z,102358
2018-02-26T13:47:26.605Z,102365
2018-02-26T13:49:54.509Z,102351
2018-02-26T13:52:22.407Z,102348
2018-02-26T13:54:50.300Z,102345
2018-02-26T13:57:18.193Z,102347
2018-02-26T13:59:46.079Z,102364
2018-02-26T14:02:13.984Z,102347
2018-02-26T14:04:41.864Z,102357
2018-02-26T14:07:09.756Z,102367
2018-02-26T14:09:37.645Z,102348
2018-02-26T14:12:05.572Z,102356
2018-02-26T14:14:33.460Z,102352
2018-02-26T14:17:01.357Z,102339
2018-02-26T14:19:29.256Z,102349
2018-02-26T14:21:57.146Z,102342
2018-02-26T14:24:25.097Z,102351
2018-02-26T14:26:52.957Z,102346
2018-02-26T14:29:20.837Z,102342
2018-02-26T14:31:48.760Z,102342
2018-02-26T14:34:16.644Z,102337
2018-02-26T14:36:44.529Z,102349
2018-02-26T14:39:12.418Z,102335
2018-02-26T14:41:40.310Z,102344
2018-02-26T14:44:08.211Z,102347
2018-02-26T14:46:36.104Z,102325
2018-02-26T14:49:03.993Z,102320
2018-02-26T14:51:31.892Z,102317
2018-02-26T14:53:59.946Z,102319
2018-02-26T14:56:28.121Z,102302
2018-02-26T14:58:56.002Z,102316
2018-02-26T15:01:23.897Z,102312
2018-02-26T15:03:51.797Z,102305
2018-02-26T15:06:19.687Z,102302
2018-02-26T15:08:47.597Z,102292
2018-02-26T15:11:15.492Z,102296
2018-02-26T15:13:43.382Z,102289
2018-02-26T15:16:11.280Z,102286
2018-02-26T15:18:39.187Z,102301
2018-02-26T15:21:07.093Z,102299
2018-02-26T15:23:34.998Z,102306
2018-02-26T15:26:02.904Z,102298
2018-02-26T15:28:30.796Z,102307
2018-02-26T15:30:58.993Z,102313
2018-02-26T15:33:26.884Z,102311
2018-02-26T15:35:54.776Z,102293
2018-02-26T15:38:22.669Z,102283
2018-02-26T15:40:50.576Z,102297
2018-02-26T15:43:18.536Z,102296
2018-02-26T15:45:46.429Z,102296
2018-02-26T15:48:14.317Z,102301
2018-02-26T15:50:42.221Z,102296
2018-02-26T15:53:10.100Z,102294
2018-02-26T15:55:37.988Z,102280
2018-02-26T15:58:05.877Z,102281
2018-02-26T16:00:33.888Z,102278
2018-02-26T16:03:01.796Z,102277
2018-02-26T16:05:29.684Z,102272
2018-02-26T16:07:57.563Z,102281
2018-02-26T16:10:25.528Z,102289
2018-02-26T16:12:53.422Z,102287
2018-02-26T16:15:21.322Z,102287
2018-02-26T16:17:49.265Z,102304
2018-02-26T16:20:17.164Z,102305
2018-02-26T16:22:45.296Z,102293
2018-02-26T16:25:13.186Z,102300
2018-02-26T16:27:41.076Z,102284
2018-02-26T16:30:08.957Z,102292
2018-02-26T16:32:36.845Z,102294
2018-02-26T16:35:04.731Z,102284
2018-02-26T16:37:32.633Z,102277
2018-02-26T16:40:00.545Z,102285
2018-02-26T16:42:28.582Z,102277
2018-02-26T16:44:56.485Z,102273
2018-02-26T16:47:24.371Z,102276
2018-02-26T16:49:52.257Z,102266
2018-02-26T16:52:20.169Z,102264
2018-02-26T16:54:48.064Z,102270
2018-02-26T16:57:15.956Z,102263
2018-02-26T16:59:43.870Z,102275
2018-02-26T17:02:18.842Z,102257
2018-02-26T17:04:46.749Z,102265
2018-02-26T17:07:14.637Z,102262
2018-02-26T17:09:42.531Z,102268
2018-02-26T17:12:10.422Z,102263
2018-02-26T17:14:38.317Z,102262
2018-02-26T17:17:06.208Z,102265
2018-02-26T17:19:34.112Z,102264
2018-02-26T17:22:02.010Z,102266
2018-02-26T17:24:29.925Z,102260
2018-02-26T17:26:57.817Z,102254
2018-02-26T17:29:25.704Z,102261
2018-02-26T17:31:54.101Z,102258
2018-02-26T17:34:22.000Z,102259
2018-02-26T17:36:49.917Z,102251
2018-02-26T17:39:17.833Z,102251
2018-02-26T17:41:45.729Z,102246
2018-02-26T17:44:13.612Z,102255
2018-02-26T17:46:41.525Z,102254
2018-02-26T17:49:09.445Z,102258
2018-02-26T17:51:37.344Z,102251
2018-02-26T17:54:05.234Z,102252
2018-02-26T17:56:33.145Z,102252
2018-02-26T17:59:01.038Z,102254
2018-02-26T18:01:28.934Z,102254
2018-02-26T18:03:56.833Z,102244
2018-02-26T18:06:24.717Z,102255
2018-02-26T18:08:52.612Z,102245
2018-02-26T18:11:20.492Z,102255
2018-02-26T18:13:48.391Z,102252
2018-02-26T18:16:16.278Z,102251
2018-02-26T18:18:44.218Z,102258
2018-02-26T18:21:12.101Z,102256
2018-02-26T18:23:39.988Z,102259
2018-02-26T18:26:07.905Z,102254
2018-02-26T18:28:35.802Z,102241
2018-02-26T19:00:33.460Z,102219
2018-02-26T19:03:01.344Z,102223
2018-02-26T19:05:29.248Z,102229
2018-02-26T19:07:57.189Z,102222
2018-02-26T19:10:25.084Z,102217
2018-02-26T19:12:52.981Z,102208
2018-02-26T19:15:20.864Z,102215
2018-02-26T19:17:48.784Z,102211
2018-02-26T19:20:16.660Z,102211
2018-02-26T19:22:44.584Z,102208
2018-02-26T19:25:19.458Z,102215
2018-02-26T19:27:47.355Z,102207
2018-02-26T19:30:15.265Z,102204
2018-02-26T19:32:43.151Z,102202
2018-02-26T19:35:11.045Z,102202
2018-02-26T19:37:38.945Z,102200
2018-02-26T19:40:06.836Z,102200
2018-02-26T19:42:34.776Z,102203
2018-02-26T19:45:02.702Z,102197
2018-02-26T19:47:30.588Z,102195
2018-02-26T19:49:58.487Z,102194
2018-02-26T19:52:26.385Z,102207
2018-02-26T19:54:54.338Z,102213
2018-02-26T19:57:22.241Z,102203
2018-02-26T19:59:50.132Z,102204
2018-02-26T20:02:18.031Z,102204
2018-02-26T20:04:45.943Z,102219
2018-02-26T20:07:13.841Z,102207
2018-02-26T20:09:41.724Z,102204
2018-02-26T20:12:09.664Z,102194
2018-02-26T20:14:37.552Z,102210
2018-02-26T20:17:05.497Z,102208
2018-02-26T20:19:33.393Z,102199
2018-02-26T20:22:01.288Z,102212
2018-02-26T20:24:29.177Z,102205
2018-02-26T20:26:57.064Z,102197
2018-02-26T20:29:24.947Z,102191
2018-02-26T20:31:52.844Z,102193
2018-02-26T20:34:20.728Z,102190
2018-02-26T20:36:48.632Z,102188
2018-02-26T20:39:16.534Z,102185
2018-02-26T20:41:44.428Z,102181
2018-02-26T20:44:12.325Z,102185
2018-02-26T20:46:40.231Z,102194
2018-02-26T20:49:08.130Z,102180
2018-02-26T20:51:36.040Z,102181
2018-02-26T20:54:03.952Z,102173
2018-02-26T20:56:31.836Z,102163
2018-02-26T20:58:59.733Z,102180
2018-02-26T21:01:27.669Z,102169
2018-02-26T21:03:55.556Z,102179
2018-02-26T21:06:23.441Z,102171
2018-02-26T21:08:51.373Z,102178
2018-02-26T21:11:19.268Z,102166
2018-02-26T21:13:47.177Z,102173
2018-02-26T21:16:15.073Z,102163
2018-02-26T21:18:42.964Z,102165
2018-02-26T21:21:10.848Z,102161
2018-02-26T21:23:38.736Z,102167
2018-02-26T21:26:06.777Z,102166
2018-02-26T21:28:34.676Z,102161
2018-02-26T21:31:02.578Z,102163
2018-02-26T21:33:30.464Z,102161
2018-02-26T21:35:58.373Z,102158
2018-02-26T21:38:26.260Z,102154
2018-02-26T21:40:54.148Z,102154
2018-02-26T21:43:22.045Z,102205
2018-02-26T21:45:49.932Z,102157
2018-02-26T21:48:17.824Z,102166
2018-02-26T21:50:45.708Z,102160
2018-02-26T21:53:13.600Z,102161
2018-02-26T21:55:41.568Z,102160
2018-02-26T21:58:09.492Z,102158
2018-02-26T22:00:37.416Z,102156
2018-02-26T22:03:05.309Z,102151
2018-02-26T22:05:33.209Z,102158
2018-02-26T22:08:01.093Z,102157
2018-02-26T22:10:28.992Z,102153
2018-02-26T22:12:56.920Z,102171
2018-02-26T22:15:24.808Z,102172
2018-02-26T22:17:52.697Z,102172
2018-02-26T22:20:20.593Z,102162
2018-02-26T22:22:48.497Z,102174
2018-02-26T22:25:16.384Z,102174
2018-02-26T22:27:44.288Z,102211
2018-02-26T22:30:12.189Z,102160
2018-02-26T22:32:47.024Z,102152
2018-02-26T22:35:14.941Z,102162
2018-02-26T22:37:42.831Z,102157
2018-02-26T22:40:10.726Z,102158
2018-02-26T22:42:38.610Z,102162
2018-02-26T22:45:06.516Z,102155
2018-02-26T22:47:34.456Z,102148
2018-02-26T22:50:02.364Z,102152
2018-02-26T22:52:30.252Z,102132
2018-02-26T22:54:58.149Z,102134
2018-02-26T22:57:26.401Z,102146
2018-02-26T22:59:54.297Z,102151
2018-02-26T23:02:22.244Z,102145
2018-02-26T23:04:50.089Z,102140
2018-02-26T23:07:17.972Z,102115
2018-02-26T23:09:45.877Z,102135
2018-02-26T23:12:13.768Z,102129
2018-02-26T23:14:41.665Z,102125
2018-02-26T23:17:09.572Z,102115
2018-02-26T23:19:37.632Z,102119
2018-02-26T23:22:05.529Z,102120
2018-02-26T23:24:33.437Z,102115
2018-02-26T23:27:01.329Z,102109
2018-02-26T23:29:29.212Z,102110
2018-02-26T23:31:57.101Z,102112
2018-02-26T23:34:24.998Z,102109
2018-02-26T23:36:52.921Z,102107
2018-02-26T23:39:20.804Z,102108
2018-02-26T23:41:48.688Z,102097
2018-02-26T23:44:16.573Z,102116
2018-02-26T23:46:44.460Z,102104
2018-02-26T23:49:12.352Z,102105
2018-02-26T23:51:40.262Z,102105
2018-02-26T23:54:21.524Z,102103
2018-02-26T23:56:49.427Z,102105
2018-02-26T23:59:17.316Z,102100
